Wellsburg, New York
Current Conditions -  °F | °C
As of 10:53 PM on Tuesday 27 Jan 2015 (Local Time) from KELM Reporting Station
Clear Clear  
Wind Chill: -3°   Ceiling: Unl
Heat Index:   Visibility: 10mi
Dew Point:   Wind: 8mph
Humidity: 70%   Direction: 250°WSW
Pressure: 30.02"   Gusts: NA
Location:  42.02°N, 76.73°W
Report Text: KELM 280353Z AUTO 25007KT 10SM CLR M13/M17 A3002 RMK AO2 SLP182 T11281172
Loading
Personal Weather Stations






























Interactive Weather Map New forecast layout! Learn more

10-Day Weather Forecast

Advertisements
Track Severe Weather on mobile